Time;durP1;ratioP1;P1;durP2;ratioP2;P2;SDS_P1;SDS_P2;PMS_P1;PMS_P2;Temp;Humidity;BMP_temperature;BMP_pressure;BME280_temperature;BME280_humidity;BME280_pressure;Samples;Min_cycle;Max_cycle;Signal;HPM_P1;HPM_P2
2022/04/09 00:01:13;;;;;;;0.40;0.28;;;;;;;;;;5127787;27;20142;-70
2022/04/09 00:03:41;;;;;;;1.30;0.68;;;;;;;;;;5118094;27;20108;-70
2022/04/09 00:06:09;;;;;;;0.43;0.40;;;;;;;;;;5113363;28;20130;-69
2022/04/09 00:08:38;;;;;;;0.43;0.40;;;;;;;;;;5116995;27;20060;-73
2022/04/09 00:11:09;;;;;;;0.52;0.30;;;;;;;;;;5114967;27;20665;-69
2022/04/09 00:13:41;;;;;;;1.95;0.35;;;;;;;;;;5119330;27;20131;-72
2022/04/09 00:16:09;;;;;;;0.22;0.22;;;;;;;;;;5117963;27;20518;-71
2022/04/09 00:18:37;;;;;;;2.88;0.50;;;;;;;;;;5113501;27;20054;-69
2022/04/09 00:21:09;;;;;;;0.90;0.35;;;;;;;;;;5124028;27;20178;-73
2022/04/09 00:23:37;;;;;;;0.98;0.50;;;;;;;;;;5112445;28;20135;-70
2022/04/09 00:26:13;;;;;;;2.38;0.40;;;;;;;;;;5126797;27;20122;-70
2022/04/09 00:28:42;;;;;;;0.70;0.38;;;;;;;;;;5117576;27;20130;-71
2022/04/09 00:31:13;;;;;;;1.05;0.40;;;;;;;;;;5128164;27;20085;-70
2022/04/09 00:33:42;;;;;;;2.35;0.50;;;;;;;;;;5111208;27;20138;-72
2022/04/09 00:36:13;;;;;;;2.00;0.45;;;;;;;;;;5113967;27;20565;-70
2022/04/09 00:38:41;;;;;;;0.63;0.52;;;;;;;;;;5116782;27;20149;-70
2022/04/09 00:41:10;;;;;;;0.65;0.47;;;;;;;;;;5120039;27;20047;-70
2022/04/09 00:43:43;;;;;;;0.80;0.57;;;;;;;;;;5124277;27;20047;-70
2022/04/09 00:46:13;;;;;;;1.20;0.70;;;;;;;;;;5111945;27;20154;-70
2022/04/09 00:48:43;;;;;;;0.70;0.38;;;;;;;;;;5119622;27;20130;-71
2022/04/09 00:51:11;;;;;;;1.15;0.40;;;;;;;;;;5115238;27;20137;-70
2022/04/09 00:53:41;;;;;;;2.00;0.60;;;;;;;;;;5113455;27;20076;-70
2022/04/09 00:56:16;;;;;;;3.83;0.50;;;;;;;;;;5124500;27;20075;-70
2022/04/09 00:58:47;;;;;;;1.08;0.47;;;;;;;;;;5124518;27;20082;-69
2022/04/09 01:01:16;;;;;;;0.47;0.30;;;;;;;;;;5116723;27;20510;-71
2022/04/09 01:03:45;;;;;;;2.78;0.45;;;;;;;;;;5115472;27;20062;-70
2022/04/09 01:06:14;;;;;;;1.08;0.30;;;;;;;;;;5133052;27;20043;-71
2022/04/09 01:08:42;;;;;;;3.83;0.68;;;;;;;;;;5115715;27;20063;-72
2022/04/09 01:11:14;;;;;;;2.13;0.40;;;;;;;;;;5127578;27;20087;-69
2022/04/09 01:13:42;;;;;;;0.30;0.10;;;;;;;;;;5130415;27;20081;-70
2022/04/09 01:16:15;;;;;;;0.95;0.47;;;;;;;;;;5121210;27;20131;-69
2022/04/09 01:18:43;;;;;;;2.72;0.30;;;;;;;;;;5122546;27;20047;-70
2022/04/09 01:21:15;;;;;;;0.22;0.10;;;;;;;;;;5112563;27;20115;-70
2022/04/09 01:23:44;;;;;;;0.10;0.10;;;;;;;;;;5111007;27;20134;-70
2022/04/09 01:26:15;;;;;;;0.20;0.10;;;;;;;;;;5118464;27;20135;-71
2022/04/09 01:28:44;;;;;;;1.95;0.20;;;;;;;;;;5117790;27;20044;-69
2022/04/09 01:31:18;;;;;;;0.10;0.10;;;;;;;;;;5115022;27;20047;-70
2022/04/09 01:33:46;;;;;;;0.10;0.10;;;;;;;;;;5115280;27;20073;-70
2022/04/09 01:36:21;;;;;;;1.20;0.10;;;;;;;;;;5113546;27;20096;-70
2022/04/09 01:38:50;;;;;;;2.75;0.20;;;;;;;;;;5124107;27;20437;-70
2022/04/09 01:41:22;;;;;;;0.10;0.10;;;;;;;;;;5114803;27;20441;-69
2022/04/09 01:43:50;;;;;;;0.10;0.10;;;;;;;;;;5113491;27;20043;-72
2022/04/09 01:46:21;;;;;;;0.10;0.10;;;;;;;;;;5129893;27;20107;-73
2022/04/09 01:48:49;;;;;;;0.20;0.15;;;;;;;;;;5114192;27;20043;-72
2022/04/09 01:51:24;;;;;;;0.45;0.20;;;;;;;;;;5115438;27;20051;-71
2022/04/09 01:53:53;;;;;;;0.10;0.10;;;;;;;;;;5114983;27;20051;-71
2022/04/09 01:56:22;;;;;;;0.10;0.10;;;;;;;;;;5112100;27;20046;-71
2022/04/09 01:58:50;;;;;;;0.22;0.22;;;;;;;;;;5114070;27;20105;-70
2022/04/09 02:01:28;;;;;;;2.28;0.22;;;;;;;;;;5114041;27;20562;-69
2022/04/09 02:03:56;;;;;;;0.10;0.10;;;;;;;;;;5113168;27;20048;-69
2022/04/09 02:06:34;;;;;;;1.85;0.28;;;;;;;;;;5113344;27;20071;-70
2022/04/09 02:09:04;;;;;;;0.10;0.10;;;;;;;;;;5123860;27;20123;-70
2022/04/09 02:11:32;;;;;;;0.98;0.20;;;;;;;;;;5119713;27;20082;-71
2022/04/09 02:14:00;;;;;;;0.15;0.15;;;;;;;;;;5122849;27;20122;-70
2022/04/09 02:16:29;;;;;;;0.85;0.20;;;;;;;;;;5117859;27;20039;-69
2022/04/09 02:18:57;;;;;;;0.20;0.20;;;;;;;;;;5125867;27;20055;-69
2022/04/09 02:21:31;;;;;;;1.08;0.20;;;;;;;;;;5115666;27;20047;-71
2022/04/09 02:23:59;;;;;;;0.15;0.15;;;;;;;;;;5115633;27;20552;-70
2022/04/09 02:26:32;;;;;;;0.20;0.20;;;;;;;;;;5119288;27;20074;-70
2022/04/09 02:29:00;;;;;;;0.30;0.20;;;;;;;;;;5115189;27;20126;-70
2022/04/09 02:31:29;;;;;;;0.20;0.20;;;;;;;;;;5111519;27;22274;-69
2022/04/09 02:33:57;;;;;;;0.20;0.20;;;;;;;;;;5128220;27;20467;-69
2022/04/09 02:36:32;;;;;;;0.32;0.30;;;;;;;;;;5111812;27;20135;-69
2022/04/09 02:39:01;;;;;;;0.30;0.30;;;;;;;;;;5122248;27;20163;-73
2022/04/09 02:41:29;;;;;;;0.30;0.30;;;;;;;;;;5122136;27;20529;-70
2022/04/09 02:43:59;;;;;;;0.40;0.40;;;;;;;;;;5110997;27;20071;-69
2022/04/09 02:46:30;;;;;;;0.32;0.32;;;;;;;;;;5123147;27;20902;-70
2022/04/09 02:48:58;;;;;;;1.17;0.50;;;;;;;;;;5113977;27;20043;-70
2022/04/09 02:51:26;;;;;;;0.45;0.43;;;;;;;;;;5118075;27;20107;-70
2022/04/09 02:53:55;;;;;;;0.43;0.43;;;;;;;;;;5118917;27;20051;-70
2022/04/09 02:56:29;;;;;;;0.65;0.45;;;;;;;;;;5119825;27;20138;-70
2022/04/09 02:58:59;;;;;;;0.40;0.40;;;;;;;;;;5112045;27;20082;-70
2022/04/09 03:01:28;;;;;;;0.40;0.40;;;;;;;;;;5121975;27;20130;-70
2022/04/09 03:03:57;;;;;;;1.77;0.40;;;;;;;;;;5124803;27;20043;-70
2022/04/09 03:06:25;;;;;;;0.40;0.40;;;;;;;;;;5116763;27;20486;-69
2022/04/09 03:08:53;;;;;;;0.38;0.38;;;;;;;;;;5115142;27;20150;-69
2022/04/09 03:11:22;;;;;;;0.50;0.50;;;;;;;;;;5113290;27;20142;-71
2022/04/09 03:13:50;;;;;;;1.83;0.45;;;;;;;;;;5108994;28;20051;-70
2022/04/09 03:16:29;;;;;;;0.50;0.40;;;;;;;;;;5111650;27;20148;-70
2022/04/09 03:18:57;;;;;;;0.60;0.50;;;;;;;;;;5116878;27;20078;-69
2022/04/09 03:21:25;;;;;;;1.02;0.60;;;;;;;;;;5120351;28;20510;-70
2022/04/09 03:23:54;;;;;;;0.73;0.73;;;;;;;;;;5111444;28;20047;-72
2022/04/09 03:26:28;;;;;;;0.77;0.77;;;;;;;;;;5110772;28;20036;-70
2022/04/09 03:28:56;;;;;;;0.65;0.65;;;;;;;;;;5118476;28;20118;-69
2022/04/09 03:31:24;;;;;;;1.38;0.90;;;;;;;;;;5114162;27;20502;-68
2022/04/09 03:33:54;;;;;;;0.80;0.70;;;;;;;;;;5116604;27;20050;-70
2022/04/09 03:36:25;;;;;;;1.23;0.90;;;;;;;;;;5122083;27;20094;-70
2022/04/09 03:38:54;;;;;;;3.85;0.95;;;;;;;;;;5123375;27;20109;-69
2022/04/09 03:41:31;;;;;;;0.95;0.80;;;;;;;;;;5128366;27;20499;-71
2022/04/09 03:43:59;;;;;;;1.30;1.00;;;;;;;;;;5113495;27;20079;-70
2022/04/09 03:46:27;;;;;;;1.27;1.00;;;;;;;;;;5113763;27;20051;-69
2022/04/09 03:48:57;;;;;;;1.20;1.10;;;;;;;;;;5127976;27;20047;-70
2022/04/09 03:51:25;;;;;;;2.92;0.88;;;;;;;;;;5116415;27;20042;-69
2022/04/09 03:53:54;;;;;;;0.98;0.80;;;;;;;;;;5118891;27;20509;-69
2022/04/09 03:56:25;;;;;;;3.38;0.93;;;;;;;;;;5120552;27;20133;-70
2022/04/09 03:58:53;;;;;;;2.42;0.90;;;;;;;;;;5121432;27;20075;-70
2022/04/09 04:01:27;;;;;;;1.85;1.25;;;;;;;;;;5110501;27;20150;-70
2022/04/09 04:03:58;;;;;;;1.80;1.27;;;;;;;;;;5120238;27;20539;-69
2022/04/09 04:06:26;;;;;;;1.73;1.20;;;;;;;;;;5114406;27;20118;-71
2022/04/09 04:08:56;;;;;;;2.15;1.30;;;;;;;;;;5114181;27;20086;-70
2022/04/09 04:11:27;;;;;;;1.63;1.27;;;;;;;;;;5118761;27;20420;-70
2022/04/09 04:13:55;;;;;;;1.95;1.15;;;;;;;;;;5121203;27;20095;-70
2022/04/09 04:16:29;;;;;;;1.20;1.00;;;;;;;;;;5116244;27;20122;-73
2022/04/09 04:18:59;;;;;;;2.30;1.58;;;;;;;;;;5121532;27;20091;-70
2022/04/09 04:21:33;;;;;;;2.88;1.42;;;;;;;;;;5119927;27;20052;-70
2022/04/09 04:24:02;;;;;;;3.08;1.25;;;;;;;;;;5125867;27;20071;-73
2022/04/09 04:26:33;;;;;;;3.67;1.50;;;;;;;;;;5124223;27;20039;-69
2022/04/09 04:29:02;;;;;;;1.70;1.25;;;;;;;;;;5114743;27;20581;-71
2022/04/09 04:31:39;;;;;;;2.08;1.55;;;;;;;;;;5117166;27;20071;-69
2022/04/09 04:34:08;;;;;;;1.55;1.33;;;;;;;;;;5116832;27;20126;-70
2022/04/09 04:36:40;;;;;;;1.75;1.27;;;;;;;;;;5116250;27;20078;-70
2022/04/09 04:39:08;;;;;;;3.47;1.85;;;;;;;;;;5117096;27;20134;-70
2022/04/09 04:41:36;;;;;;;1.40;1.17;;;;;;;;;;5115108;27;20514;-70
2022/04/09 04:44:06;;;;;;;1.35;1.13;;;;;;;;;;5111659;28;20075;-70
2022/04/09 04:46:36;;;;;;;4.03;1.50;;;;;;;;;;5113315;27;20478;-73
2022/04/09 04:49:04;;;;;;;1.92;1.23;;;;;;;;;;5120498;27;20381;-72
2022/04/09 04:51:34;;;;;;;3.85;1.50;;;;;;;;;;5125737;27;20130;-71
2022/04/09 04:54:03;;;;;;;2.78;1.55;;;;;;;;;;5110729;28;20142;-70
2022/04/09 04:56:31;;;;;;;4.72;1.63;;;;;;;;;;5118936;27;20040;-69
2022/04/09 04:59:00;;;;;;;2.97;1.77;;;;;;;;;;5117206;27;20053;-70
2022/04/09 05:01:40;;;;;;;4.10;1.92;;;;;;;;;;5118514;27;20059;-71
2022/04/09 05:04:09;;;;;;;2.85;1.75;;;;;;;;;;5125217;27;20107;-69
2022/04/09 05:06:39;;;;;;;3.67;1.92;;;;;;;;;;5113146;27;20048;-69
2022/04/09 05:09:07;;;;;;;4.75;2.00;;;;;;;;;;5114940;27;20057;-69
2022/04/09 05:11:36;;;;;;;3.45;2.05;;;;;;;;;;5114948;27;20134;-70
2022/04/09 05:14:04;;;;;;;2.92;1.85;;;;;;;;;;5117659;27;20074;-69
2022/04/09 05:16:33;;;;;;;3.50;2.00;;;;;;;;;;5123549;27;20050;-71
2022/04/09 05:19:01;;;;;;;4.30;2.00;;;;;;;;;;5120436;27;20509;-69
2022/04/09 05:21:29;;;;;;;2.90;2.20;;;;;;;;;;5120318;27;20605;-70
2022/04/09 05:24:00;;;;;;;4.30;2.70;;;;;;;;;;5125591;27;20194;-70
2022/04/09 05:26:28;;;;;;;3.30;2.13;;;;;;;;;;5125339;27;20043;-70
2022/04/09 05:28:56;;;;;;;3.60;2.25;;;;;;;;;;5117143;27;20117;-69
2022/04/09 05:31:27;;;;;;;4.15;2.25;;;;;;;;;;5114570;27;20130;-73
2022/04/09 05:33:56;;;;;;;4.88;2.28;;;;;;;;;;5126998;27;20532;-70
2022/04/09 05:36:33;;;;;;;4.22;2.42;;;;;;;;;;5120689;27;20134;-69
2022/04/09 05:39:03;;;;;;;9.10;3.00;;;;;;;;;;5110081;27;20067;-70
2022/04/09 05:41:31;;;;;;;3.25;2.22;;;;;;;;;;5121541;27;20079;-69
2022/04/09 05:44:00;;;;;;;5.53;2.63;;;;;;;;;;5118894;27;20449;-71
2022/04/09 05:46:47;;;;;;;2.55;1.65;;;;;;;;;;5110445;27;20051;-71
2022/04/09 05:49:15;;;;;;;4.53;2.22;;;;;;;;;;5125717;27;20134;-73
2022/04/09 05:51:43;;;;;;;4.03;2.50;;;;;;;;;;5118953;27;20115;-71
2022/04/09 05:54:13;;;;;;;4.57;2.35;;;;;;;;;;5128835;27;20075;-70
2022/04/09 05:56:41;;;;;;;4.95;2.42;;;;;;;;;;5117977;27;20232;-69
2022/04/09 05:59:09;;;;;;;5.32;2.85;;;;;;;;;;5124588;27;20141;-69
2022/04/09 06:01:53;;;;;;;6.80;2.92;;;;;;;;;;5109259;27;20044;-70
2022/04/09 06:04:22;;;;;;;5.38;3.00;;;;;;;;;;5111923;27;20087;-69
2022/04/09 06:06:51;;;;;;;4.85;2.75;;;;;;;;;;5111019;27;20175;-70
2022/04/09 06:09:21;;;;;;;8.55;3.22;;;;;;;;;;5110301;27;20090;-69
2022/04/09 06:11:49;;;;;;;5.47;3.10;;;;;;;;;;5120223;27;20061;-70
2022/04/09 06:14:18;;;;;;;6.18;3.38;;;;;;;;;;5121647;27;20116;-69
2022/04/09 06:16:48;;;;;;;7.80;3.35;;;;;;;;;;5116320;27;20477;-70
2022/04/09 06:19:16;;;;;;;5.82;3.00;;;;;;;;;;5109454;27;20291;-70
2022/04/09 06:21:45;;;;;;;5.10;2.80;;;;;;;;;;5101474;27;20043;-72
2022/04/09 06:24:13;;;;;;;4.95;2.70;;;;;;;;;;5107791;27;20151;-71
2022/04/09 06:26:42;;;;;;;5.55;2.65;;;;;;;;;;5116382;27;20556;-72
2022/04/09 06:29:11;;;;;;;5.60;3.00;;;;;;;;;;5112595;27;20158;-69
2022/04/09 06:31:39;;;;;;;7.38;3.70;;;;;;;;;;5118319;27;20079;-69
2022/04/09 06:34:07;;;;;;;4.90;3.22;;;;;;;;;;5106320;27;20083;-72
2022/04/09 06:36:36;;;;;;;5.78;3.10;;;;;;;;;;5119306;27;20532;-70
2022/04/09 06:39:04;;;;;;;4.75;3.05;;;;;;;;;;5107679;27;20471;-69
2022/04/09 06:41:33;;;;;;;6.20;3.65;;;;;;;;;;5119769;27;20128;-72
2022/04/09 06:44:04;;;;;;;7.07;3.03;;;;;;;;;;5112594;27;20039;-70
2022/04/09 06:46:32;;;;;;;6.03;3.22;;;;;;;;;;5117772;27;20134;-69
2022/04/09 06:49:01;;;;;;;6.50;3.35;;;;;;;;;;5112446;27;20757;-69
2022/04/09 06:51:29;;;;;;;6.72;3.08;;;;;;;;;;5117438;27;20047;-69
2022/04/09 06:53:58;;;;;;;5.50;3.58;;;;;;;;;;5121300;27;20105;-69
2022/04/09 06:56:32;;;;;;;4.82;3.25;;;;;;;;;;5118394;27;20047;-69
2022/04/09 06:59:01;;;;;;;5.30;3.70;;;;;;;;;;5112937;27;20106;-70
2022/04/09 07:01:31;;;;;;;7.10;3.67;;;;;;;;;;5109960;27;20083;-70
2022/04/09 07:04:00;;;;;;;7.28;3.03;;;;;;;;;;5108733;27;20051;-69
2022/04/09 07:06:30;;;;;;;5.38;3.05;;;;;;;;;;5108420;27;20846;-69
2022/04/09 07:08:58;;;;;;;7.13;4.18;;;;;;;;;;5106119;28;20046;-70
2022/04/09 07:11:27;;;;;;;6.60;3.20;;;;;;;;;;5106215;27;20108;-74
2022/04/09 07:13:55;;;;;;;6.55;3.58;;;;;;;;;;5110225;27;20047;-70
2022/04/09 07:16:24;;;;;;;6.82;3.45;;;;;;;;;;5114286;27;20139;-69
2022/04/09 07:18:54;;;;;;;7.68;3.38;;;;;;;;;;5111050;27;20044;-70
2022/04/09 07:21:32;;;;;;;7.60;4.05;;;;;;;;;;5107597;28;20035;-69
2022/04/09 07:24:00;;;;;;;6.78;3.58;;;;;;;;;;5105568;27;20047;-70
2022/04/09 07:26:29;;;;;;;10.00;4.03;;;;;;;;;;5115805;27;20131;-70
2022/04/09 07:28:57;;;;;;;9.57;4.18;;;;;;;;;;5111487;27;20116;-69
2022/04/09 07:31:28;;;;;;;5.10;3.17;;;;;;;;;;5111994;28;20152;-69
2022/04/09 07:33:58;;;;;;;5.90;3.65;;;;;;;;;;5118342;28;20058;-72
2022/04/09 07:36:28;;;;;;;11.23;4.13;;;;;;;;;;5111430;28;20043;-70
2022/04/09 07:38:56;;;;;;;10.38;3.72;;;;;;;;;;5114401;27;20455;-71
2022/04/09 07:41:25;;;;;;;7.07;4.10;;;;;;;;;;5121453;27;20457;-70
2022/04/09 07:43:53;;;;;;;5.20;3.50;;;;;;;;;;5125828;27;20130;-69
2022/04/09 07:46:27;;;;;;;8.32;3.88;;;;;;;;;;5121504;27;20089;-72
2022/04/09 07:49:01;;;;;;;8.05;3.55;;;;;;;;;;5110176;27;20075;-69
2022/04/09 07:51:29;;;;;;;7.10;3.97;;;;;;;;;;5116741;27;20047;-69
2022/04/09 07:53:57;;;;;;;8.05;4.07;;;;;;;;;;5121001;27;20074;-70
2022/04/09 07:56:35;;;;;;;6.88;4.15;;;;;;;;;;5118774;28;20226;-70
2022/04/09 07:59:03;;;;;;;10.20;4.55;;;;;;;;;;5107381;27;20036;-72
2022/04/09 08:01:32;;;;;;;10.30;4.00;;;;;;;;;;5110245;28;20060;-70
2022/04/09 08:04:02;;;;;;;9.85;4.43;;;;;;;;;;5119673;27;20493;-69
2022/04/09 08:06:34;;;;;;;8.02;4.25;;;;;;;;;;5108935;27;20040;-70
2022/04/09 08:09:02;;;;;;;11.82;5.35;;;;;;;;;;5111549;28;20067;-70
2022/04/09 08:11:31;;;;;;;10.32;4.95;;;;;;;;;;5112468;28;20047;-69
2022/04/09 08:13:59;;;;;;;12.02;4.63;;;;;;;;;;5125886;27;20108;-70
2022/04/09 08:16:27;;;;;;;10.43;5.15;;;;;;;;;;5124734;27;20135;-71
2022/04/09 08:18:56;;;;;;;8.13;4.22;;;;;;;;;;5120424;27;20050;-68
2022/04/09 08:21:31;;;;;;;7.28;4.40;;;;;;;;;;5119497;27;20067;-70
2022/04/09 08:24:00;;;;;;;10.23;4.65;;;;;;;;;;5125368;27;20050;-69
2022/04/09 08:26:31;;;;;;;11.45;4.95;;;;;;;;;;5123487;27;20134;-72
2022/04/09 08:29:00;;;;;;;10.55;4.53;;;;;;;;;;5116460;27;20527;-69
2022/04/09 08:31:28;;;;;;;8.25;4.72;;;;;;;;;;5125640;27;20063;-69
2022/04/09 08:33:57;;;;;;;6.85;4.15;;;;;;;;;;5121494;27;20054;-69
2022/04/09 08:36:25;;;;;;;6.80;3.83;;;;;;;;;;5115577;27;20071;-69
2022/04/09 08:38:56;;;;;;;7.10;4.00;;;;;;;;;;5119646;27;20071;-69
2022/04/09 08:41:27;;;;;;;8.18;4.15;;;;;;;;;;5117192;27;20047;-69
2022/04/09 08:43:56;;;;;;;4.82;2.92;;;;;;;;;;5115428;27;20074;-69
2022/04/09 08:46:27;;;;;;;8.30;3.38;;;;;;;;;;5121495;27;20085;-70
2022/04/09 08:48:56;;;;;;;5.32;2.80;;;;;;;;;;5110471;27;20650;-68
2022/04/09 08:51:25;;;;;;;4.45;2.60;;;;;;;;;;5113748;27;20059;-69
2022/04/09 08:54:02;;;;;;;4.70;2.25;;;;;;;;;;5112074;27;20046;-71
2022/04/09 08:56:38;;;;;;;5.18;2.53;;;;;;;;;;5120914;27;20475;-71
2022/04/09 08:59:06;;;;;;;5.72;2.45;;;;;;;;;;5112667;27;20063;-70
2022/04/09 09:01:41;;;;;;;4.05;2.30;;;;;;;;;;5135158;27;20138;-70
2022/04/09 09:04:09;;;;;;;3.28;2.22;;;;;;;;;;5124390;27;20051;-71
2022/04/09 09:06:40;;;;;;;4.82;2.22;;;;;;;;;;5126398;27;20490;-70
2022/04/09 09:09:25;;;;;;;2.97;1.88;;;;;;;;;;5129478;27;20188;-72
2022/04/09 09:11:53;;;;;;;4.72;1.98;;;;;;;;;;5121261;27;20051;-69
2022/04/09 09:14:26;;;;;;;4.70;2.17;;;;;;;;;;5112263;27;20522;-69
2022/04/09 09:16:55;;;;;;;6.70;2.70;;;;;;;;;;5114508;27;20039;-70
2022/04/09 09:19:23;;;;;;;3.60;2.42;;;;;;;;;;5125203;27;20336;-69
2022/04/09 09:22:05;;;;;;;3.47;2.53;;;;;;;;;;5120925;27;20775;-69
2022/04/09 09:24:35;;;;;;;2.95;2.00;;;;;;;;;;5116858;27;20132;-70
2022/04/09 09:27:05;;;;;;;4.40;1.90;;;;;;;;;;5113440;27;20118;-70
2022/04/09 09:29:34;;;;;;;2.70;1.80;;;;;;;;;;5120146;27;20146;-70
2022/04/09 09:32:03;;;;;;;4.75;1.73;;;;;;;;;;5117525;27;20471;-70
2022/04/09 09:37:45;;;;;;;2.75;1.67;;;;;;;;;;5113711;27;20479;-73
2022/04/09 09:40:31;;;;;;;6.10;1.95;;;;;;;;;;5113325;27;20051;-70
2022/04/09 09:43:14;;;;;;;3.10;2.13;;;;;;;;;;5119480;27;20098;-71
2022/04/09 09:45:43;;;;;;;6.72;1.80;;;;;;;;;;5129955;27;20079;-69
2022/04/09 09:48:20;;;;;;;3.00;1.60;;;;;;;;;;5119493;27;20131;-69
2022/04/09 09:50:49;;;;;;;5.05;2.35;;;;;;;;;;5135806;27;20133;-69
2022/04/09 09:53:17;;;;;;;4.68;2.28;;;;;;;;;;5123728;27;20082;-71
2022/04/09 09:55:47;;;;;;;6.80;3.38;;;;;;;;;;5112275;27;20138;-68
2022/04/09 09:58:17;;;;;;;4.00;2.15;;;;;;;;;;5133811;27;20113;-71
2022/04/09 10:01:10;;;;;;;5.78;2.67;;;;;;;;;;5128515;27;20048;-70
2022/04/09 10:03:39;;;;;;;4.05;2.20;;;;;;;;;;5119873;27;20089;-72
2022/04/09 10:06:09;;;;;;;2.95;2.30;;;;;;;;;;5117937;27;20567;-70
2022/04/09 10:08:39;;;;;;;7.10;2.25;;;;;;;;;;5118662;27;20144;-70
2022/04/09 10:11:09;;;;;;;3.60;1.90;;;;;;;;;;5118064;27;20070;-70
2022/04/09 10:13:39;;;;;;;2.55;1.85;;;;;;;;;;5120094;27;20614;-69
2022/04/09 10:16:11;;;;;;;4.72;2.08;;;;;;;;;;5111540;27;20059;-72
2022/04/09 10:18:40;;;;;;;7.88;3.03;;;;;;;;;;5115356;27;20122;-69
2022/04/09 10:21:09;;;;;;;5.40;2.15;;;;;;;;;;5121171;27;20047;-69
2022/04/09 10:23:37;;;;;;;4.28;1.80;;;;;;;;;;5125738;27;20043;-71
2022/04/09 10:26:11;;;;;;;2.97;1.92;;;;;;;;;;5125887;27;20071;-69
2022/04/09 10:28:40;;;;;;;5.53;2.13;;;;;;;;;;5113853;27;20046;-71
2022/04/09 10:31:27;;;;;;;5.38;1.63;;;;;;;;;;5123029;27;20135;-70
2022/04/09 10:33:56;;;;;;;3.78;1.80;;;;;;;;;;5121591;27;20035;-71
2022/04/09 10:36:39;;;;;;;2.33;1.70;;;;;;;;;;5121355;27;20126;-69
2022/04/09 10:39:23;;;;;;;1.92;1.50;;;;;;;;;;5118285;27;20187;-69
2022/04/09 10:41:54;;;;;;;2.00;1.50;;;;;;;;;;5107980;28;20079;-68
2022/04/09 10:44:35;;;;;;;3.90;1.63;;;;;;;;;;5118472;27;20043;-69
2022/04/09 10:47:04;;;;;;;4.10;1.80;;;;;;;;;;5126352;27;20044;-69
2022/04/09 10:49:33;;;;;;;3.05;2.00;;;;;;;;;;5112449;27;20112;-70
2022/04/09 10:52:06;;;;;;;3.75;1.83;;;;;;;;;;5119782;27;20082;-70
2022/04/09 10:54:34;;;;;;;1.98;1.30;;;;;;;;;;5124682;27;20443;-70
2022/04/09 10:57:24;;;;;;;3.25;1.45;;;;;;;;;;5114117;27;20096;-70
2022/04/09 10:59:59;;;;;;;3.95;2.13;;;;;;;;;;5125341;27;20146;-69
2022/04/09 11:02:27;;;;;;;4.47;1.70;;;;;;;;;;5121311;27;20039;-70
2022/04/09 11:04:57;;;;;;;2.08;1.70;;;;;;;;;;5123192;27;20091;-69
2022/04/09 11:07:27;;;;;;;6.68;1.88;;;;;;;;;;5108017;27;20053;-71
2022/04/09 11:09:58;;;;;;;2.15;1.50;;;;;;;;;;5119778;27;20131;-73
2022/04/09 11:12:29;;;;;;;4.00;1.50;;;;;;;;;;5109966;27;20047;-71
2022/04/09 11:14:58;;;;;;;1.88;1.48;;;;;;;;;;5125245;27;20051;-71
2022/04/09 11:17:28;;;;;;;4.82;1.33;;;;;;;;;;5130203;28;20096;-71
2022/04/09 11:19:57;;;;;;;2.72;1.80;;;;;;;;;;5123541;28;20044;-70
2022/04/09 11:22:32;;;;;;;5.00;1.80;;;;;;;;;;5123856;28;20074;-70
2022/04/09 11:25:01;;;;;;;4.20;1.42;;;;;;;;;;5130322;28;20043;-71
2022/04/09 11:27:31;;;;;;;2.05;1.33;;;;;;;;;;5128658;28;20073;-71
2022/04/09 11:29:59;;;;;;;2.50;1.40;;;;;;;;;;5113881;28;20123;-71
2022/04/09 11:32:28;;;;;;;3.55;1.52;;;;;;;;;;5126613;28;20151;-70
2022/04/09 11:34:58;;;;;;;3.28;1.38;;;;;;;;;;5123068;28;20488;-70
2022/04/09 11:37:29;;;;;;;3.67;1.60;;;;;;;;;;5123252;28;20507;-71
2022/04/09 11:39:58;;;;;;;2.28;1.58;;;;;;;;;;5126657;28;20055;-71
2022/04/09 11:42:27;;;;;;;3.60;1.80;;;;;;;;;;5129755;28;20047;-70
2022/04/09 11:44:57;;;;;;;3.85;1.63;;;;;;;;;;5118644;28;20126;-72
2022/04/09 11:47:26;;;;;;;4.45;1.52;;;;;;;;;;5117829;28;20050;-71
2022/04/09 11:49:54;;;;;;;4.22;1.73;;;;;;;;;;5116081;28;20131;-72
2022/04/09 11:52:26;;;;;;;3.58;1.63;;;;;;;;;;5120867;28;20047;-71
2022/04/09 11:54:55;;;;;;;1.85;1.52;;;;;;;;;;5116748;28;20130;-72
2022/04/09 11:57:24;;;;;;;3.22;1.60;;;;;;;;;;5128554;27;20525;-71
2022/04/09 11:59:53;;;;;;;2.75;1.70;;;;;;;;;;5132937;27;20455;-72
2022/04/09 12:02:25;;;;;;;2.35;1.65;;;;;;;;;;5123782;27;20047;-71
2022/04/09 12:04:55;;;;;;;4.55;1.70;;;;;;;;;;5129277;27;20051;-71
2022/04/09 12:07:24;;;;;;;4.85;1.30;;;;;;;;;;5128288;27;20094;-70
2022/04/09 12:09:53;;;;;;;8.35;1.30;;;;;;;;;;5124168;27;20043;-72
2022/04/09 12:12:23;;;;;;;2.25;1.20;;;;;;;;;;5113885;28;20077;-72
2022/04/09 12:14:55;;;;;;;1.65;1.15;;;;;;;;;;5114075;28;20056;-73
2022/04/09 12:17:32;;;;;;;2.22;1.15;;;;;;;;;;5127707;27;20066;-72
2022/04/09 12:20:00;;;;;;;2.80;1.10;;;;;;;;;;5115629;27;20127;-72
2022/04/09 12:22:29;;;;;;;1.98;1.10;;;;;;;;;;5114759;28;20120;-71
2022/04/09 12:24:58;;;;;;;2.42;1.02;;;;;;;;;;5131954;27;20051;-72
2022/04/09 12:27:46;;;;;;;2.70;1.42;;;;;;;;;;5126667;27;20046;-70
2022/04/09 12:30:15;;;;;;;3.03;1.15;;;;;;;;;;5134570;27;20491;-71
2022/04/09 12:32:45;;;;;;;3.03;1.02;;;;;;;;;;5133402;27;20078;-71
2022/04/09 12:35:14;;;;;;;1.85;1.00;;;;;;;;;;5115311;27;20091;-73
2022/04/09 12:37:46;;;;;;;5.03;1.13;;;;;;;;;;5113376;28;20083;-69
2022/04/09 12:40:15;;;;;;;4.07;1.27;;;;;;;;;;5131759;27;20486;-71
2022/04/09 12:42:43;;;;;;;2.78;1.00;;;;;;;;;;5132177;27;20086;-71
2022/04/09 12:45:12;;;;;;;1.60;1.02;;;;;;;;;;5115617;27;20078;-71
2022/04/09 12:47:41;;;;;;;3.83;0.77;;;;;;;;;;5126403;27;20043;-71
2022/04/09 12:50:21;;;;;;;2.28;1.10;;;;;;;;;;5112985;27;20051;-71
2022/04/09 12:52:50;;;;;;;4.50;1.17;;;;;;;;;;5120337;27;20506;-71
2022/04/09 12:55:19;;;;;;;3.55;1.13;;;;;;;;;;5128894;27;20039;-70
2022/04/09 12:57:48;;;;;;;1.90;1.23;;;;;;;;;;5132959;27;20051;-71
2022/04/09 13:00:17;;;;;;;2.35;1.08;;;;;;;;;;5132101;27;20051;-71
2022/04/09 13:02:45;;;;;;;1.95;1.17;;;;;;;;;;5121852;27;20048;-70
2022/04/09 13:05:15;;;;;;;1.77;0.80;;;;;;;;;;5115691;27;20526;-70
2022/04/09 13:07:45;;;;;;;2.45;1.20;;;;;;;;;;5122278;27;20047;-72
2022/04/09 13:10:14;;;;;;;4.93;1.05;;;;;;;;;;5118214;27;20435;-71
2022/04/09 13:12:43;;;;;;;6.45;1.77;;;;;;;;;;5112303;28;20047;-71
2022/04/09 13:15:12;;;;;;;3.38;1.00;;;;;;;;;;5112239;28;20055;-71
2022/04/09 13:17:40;;;;;;;2.70;1.48;;;;;;;;;;5116279;27;20050;-71
2022/04/09 13:20:09;;;;;;;1.80;0.90;;;;;;;;;;5119051;27;20104;-71
2022/04/09 13:22:38;;;;;;;2.20;1.17;;;;;;;;;;5112475;27;20047;-71
2022/04/09 13:25:09;;;;;;;3.75;1.38;;;;;;;;;;5127020;27;20104;-70
2022/04/09 13:27:37;;;;;;;3.38;1.20;;;;;;;;;;5130637;27;20047;-71
2022/04/09 13:30:06;;;;;;;2.55;1.05;;;;;;;;;;5114406;27;20143;-73
2022/04/09 13:32:35;;;;;;;8.80;1.80;;;;;;;;;;5128943;27;20055;-73
2022/04/09 13:35:03;;;;;;;4.47;2.15;;;;;;;;;;5125035;27;20051;-70
2022/04/09 13:37:32;;;;;;;1.73;1.02;;;;;;;;;;5128461;27;20054;-71
2022/04/09 13:40:00;;;;;;;5.57;1.60;;;;;;;;;;5131352;27;20043;-72
2022/04/09 13:42:30;;;;;;;2.20;0.98;;;;;;;;;;5118212;27;20402;-72
2022/04/09 13:44:59;;;;;;;3.85;1.00;;;;;;;;;;5126102;27;20459;-72
2022/04/09 13:47:27;;;;;;;1.33;0.80;;;;;;;;;;5116739;27;20094;-71
2022/04/09 13:49:55;;;;;;;3.25;1.00;;;;;;;;;;5118630;27;20043;-70
2022/04/09 13:52:24;;;;;;;3.28;1.42;;;;;;;;;;5116126;27;20084;-71
2022/04/09 13:54:52;;;;;;;2.50;1.00;;;;;;;;;;5125386;27;20097;-71
2022/04/09 13:57:20;;;;;;;1.15;0.82;;;;;;;;;;5116501;27;20291;-72
2022/04/09 13:59:50;;;;;;;3.28;1.70;;;;;;;;;;5113840;27;20075;-71
2022/04/09 14:02:19;;;;;;;1.75;0.90;;;;;;;;;;5117029;27;20071;-71
2022/04/09 14:04:48;;;;;;;4.10;1.20;;;;;;;;;;5130666;27;20063;-71
2022/04/09 14:07:16;;;;;;;2.72;1.05;;;;;;;;;;5129316;27;20065;-70
2022/04/09 14:09:45;;;;;;;3.65;1.15;;;;;;;;;;5129663;27;20051;-71
2022/04/09 14:12:14;;;;;;;1.83;1.00;;;;;;;;;;5122275;27;20039;-71
2022/04/09 14:14:42;;;;;;;2.22;1.10;;;;;;;;;;5122739;27;20039;-71
2022/04/09 14:17:12;;;;;;;1.75;0.88;;;;;;;;;;5110139;27;20128;-71
2022/04/09 14:19:40;;;;;;;2.63;0.95;;;;;;;;;;5114411;27;20079;-71
2022/04/09 14:22:09;;;;;;;2.08;1.15;;;;;;;;;;5122509;27;20096;-70
2022/04/09 14:24:37;;;;;;;1.88;1.15;;;;;;;;;;5122273;27;20075;-71
2022/04/09 14:27:06;;;;;;;3.80;1.20;;;;;;;;;;5117277;27;20087;-72
2022/04/09 14:29:35;;;;;;;4.65;1.27;;;;;;;;;;5126314;27;20502;-72
2022/04/09 14:32:04;;;;;;;5.30;1.77;;;;;;;;;;5122280;27;20041;-71
2022/04/09 14:34:34;;;;;;;3.33;1.02;;;;;;;;;;5112857;27;20105;-72
2022/04/09 14:37:02;;;;;;;1.52;0.88;;;;;;;;;;5108776;28;20040;-70
2022/04/09 14:39:30;;;;;;;2.08;1.10;;;;;;;;;;5114963;27;20055;-72
2022/04/09 14:41:59;;;;;;;2.08;0.80;;;;;;;;;;5124528;27;20047;-71
2022/04/09 14:44:27;;;;;;;2.22;0.85;;;;;;;;;;5130587;27;20097;-71
2022/04/09 14:46:57;;;;;;;3.25;0.98;;;;;;;;;;5117766;27;20126;-71
2022/04/09 14:49:26;;;;;;;1.90;1.10;;;;;;;;;;5116964;27;20047;-71
2022/04/09 14:51:56;;;;;;;2.45;1.00;;;;;;;;;;5128125;27;20618;-71
2022/04/09 14:54:24;;;;;;;1.10;0.80;;;;;;;;;;5111746;27;20048;-71
2022/04/09 14:56:54;;;;;;;1.88;1.08;;;;;;;;;;5116571;27;20075;-72
2022/04/09 14:59:23;;;;;;;4.05;1.10;;;;;;;;;;5110452;27;20128;-71
2022/04/09 15:01:52;;;;;;;3.65;1.08;;;;;;;;;;5117277;27;20540;-70
2022/04/09 15:04:21;;;;;;;1.63;0.95;;;;;;;;;;5117575;27;20043;-72